createdAt,value
2023-02-09T00:00:25.199Z,29.05
2023-02-09T00:02:56.924Z,30.48
2023-02-09T00:05:28.609Z,30.20
2023-02-09T00:08:00.295Z,22.83
2023-02-09T00:10:31.949Z,29.35
2023-02-09T00:13:21.972Z,29.58
2023-02-09T00:16:01.596Z,32.33
2023-02-09T00:18:33.854Z,28.20
2023-02-09T00:21:09.088Z,31.40
2023-02-09T00:23:41.394Z,32.63
2023-02-09T00:26:13.071Z,32.15
2023-02-09T00:28:48.800Z,33.85
2023-02-09T00:31:21.388Z,28.48
2023-02-09T00:33:53.110Z,32.92
2023-02-09T00:36:24.769Z,29.05
2023-02-09T00:38:57.293Z,28.73
2023-02-09T00:41:47.844Z,31.17
2023-02-09T00:44:19.642Z,32.05
2023-02-09T00:46:52.297Z,29.48
2023-02-09T00:49:24.408Z,28.23
2023-02-09T00:51:56.114Z,29.00
2023-02-09T00:54:27.817Z,32.97
2023-02-09T00:57:05.134Z,25.92
2023-02-09T00:59:40.691Z,29.25
2023-02-09T01:02:13.671Z,36.55
2023-02-09T01:04:48.345Z,28.45
2023-02-09T01:07:20.989Z,27.35
2023-02-09T01:09:52.658Z,28.35
2023-02-09T01:12:24.334Z,29.75
2023-02-09T01:14:56.500Z,32.22
2023-02-09T01:17:28.895Z,27.20
2023-02-09T01:20:01.317Z,29.92
2023-02-09T01:22:34.525Z,30.05
2023-02-09T01:25:07.808Z,34.22
2023-02-09T01:27:42.244Z,30.73
2023-02-09T01:30:14.504Z,29.27
2023-02-09T01:32:46.223Z,32.20
2023-02-09T01:35:17.983Z,33.20
2023-02-09T01:37:49.624Z,36.42
2023-02-09T01:40:21.301Z,32.42
2023-02-09T01:42:55.780Z,36.65
2023-02-09T01:45:43.864Z,27.95
2023-02-09T01:48:22.210Z,29.92
2023-02-09T01:51:00.928Z,29.98
2023-02-09T01:53:33.000Z,32.72
2023-02-09T01:56:10.213Z,34.00
2023-02-09T01:58:41.965Z,36.65
2023-02-09T02:01:14.506Z,30.73
2023-02-09T02:03:46.672Z,36.47
2023-02-09T02:06:19.630Z,31.92
2023-02-09T02:09:04.281Z,25.83
2023-02-09T02:11:36.454Z,28.50
2023-02-09T02:14:30.191Z,30.65
2023-02-09T02:17:21.152Z,29.08
2023-02-09T02:19:58.752Z,30.63
2023-02-09T02:23:07.871Z,31.98
2023-02-09T02:25:56.695Z,30.83
2023-02-09T02:28:40.009Z,30.70
2023-02-09T02:31:42.491Z,29.05
2023-02-09T02:34:16.833Z,34.00
2023-02-09T02:37:19.934Z,36.47
2023-02-09T02:40:16.320Z,31.80
2023-02-09T02:42:55.390Z,34.00
2023-02-09T02:45:45.741Z,29.60
2023-02-09T02:48:27.376Z,32.88
2023-02-09T02:51:06.963Z,28.15
2023-02-09T02:53:42.381Z,32.15
2023-02-09T02:56:24.188Z,27.45
2023-02-09T02:58:59.396Z,28.40
2023-02-09T03:01:42.134Z,29.55
2023-02-09T03:04:16.150Z,28.75
2023-02-09T03:06:47.824Z,29.40
2023-02-09T03:09:19.530Z,29.48
2023-02-09T03:11:57.510Z,26.40
2023-02-09T03:14:43.432Z,28.33
2023-02-09T03:17:33.637Z,25.95
2023-02-09T03:20:23.661Z,25.63
2023-02-09T03:23:02.502Z,28.83
2023-02-09T03:25:56.171Z,25.52
2023-02-09T03:28:33.644Z,27.85
2023-02-09T03:31:06.662Z,28.98
2023-02-09T03:33:39.756Z,28.73
2023-02-09T03:36:18.412Z,28.55
2023-02-09T03:38:50.034Z,25.95
2023-02-09T03:41:21.708Z,27.98
2023-02-09T03:44:12.266Z,29.02
2023-02-09T03:46:44.235Z,33.13
2023-02-09T03:49:15.886Z,30.38
2023-02-09T03:51:47.753Z,26.25
2023-02-09T03:54:19.455Z,27.00
2023-02-09T03:56:51.134Z,31.83
2023-02-09T03:59:25.171Z,31.38
2023-02-09T04:01:58.831Z,29.92
2023-02-09T04:04:30.572Z,28.33
2023-02-09T04:07:02.343Z,26.92
2023-02-09T04:09:34.333Z,27.23
2023-02-09T04:12:06.251Z,29.98
2023-02-09T04:14:37.973Z,28.08
2023-02-09T04:17:09.834Z,27.75
2023-02-09T04:19:41.517Z,27.70
2023-02-09T04:22:13.226Z,27.88
2023-02-09T04:24:48.865Z,26.02
2023-02-09T04:27:20.584Z,27.75
2023-02-09T04:29:52.298Z,29.48
2023-02-09T04:32:23.997Z,24.35
2023-02-09T04:34:55.693Z,26.55
2023-02-09T04:37:27.401Z,30.38
2023-02-09T04:39:59.095Z,29.42
2023-02-09T04:42:32.370Z,30.55
2023-02-09T04:45:06.180Z,33.17
2023-02-09T04:47:37.875Z,30.50
2023-02-09T04:50:09.827Z,28.92
2023-02-09T04:52:41.492Z,38.97
2023-02-09T04:55:13.111Z,28.92
2023-02-09T04:58:03.169Z,27.65
2023-02-09T05:00:35.244Z,28.15
2023-02-09T05:03:07.167Z,29.23
2023-02-09T05:05:40.626Z,25.27
2023-02-09T05:08:12.338Z,29.73
2023-02-09T05:10:44.294Z,28.70
2023-02-09T05:13:16.128Z,31.17
2023-02-09T05:15:48.340Z,32.17
2023-02-09T05:18:20.085Z,30.08
2023-02-09T05:20:52.423Z,30.67
2023-02-09T05:23:24.127Z,31.95
2023-02-09T05:25:56.584Z,27.52
2023-02-09T05:28:28.319Z,29.25
2023-02-09T05:31:00.074Z,30.42
2023-02-09T05:33:31.875Z,33.42
2023-02-09T05:36:09.146Z,31.27
2023-02-09T05:38:40.916Z,31.83
2023-02-09T05:41:36.356Z,29.88
2023-02-09T05:46:39.800Z,31.00
2023-02-09T05:49:11.518Z,33.60
2023-02-09T05:51:43.196Z,30.75
2023-02-09T05:54:14.892Z,31.02
2023-02-09T05:56:46.655Z,31.98
2023-02-09T05:59:18.451Z,34.28
2023-02-09T06:01:50.611Z,30.67
2023-02-09T06:04:22.769Z,31.70
2023-02-09T06:06:54.704Z,30.17
2023-02-09T06:09:26.646Z,32.75
2023-02-09T06:11:58.340Z,27.08
2023-02-09T06:14:30.004Z,28.55
2023-02-09T06:17:01.760Z,30.52
2023-02-09T06:19:33.568Z,29.67
2023-02-09T06:22:05.753Z,25.88
2023-02-09T06:24:37.441Z,31.50
2023-02-09T06:27:09.139Z,33.70
2023-02-09T06:29:40.998Z,34.15
2023-02-09T06:32:12.753Z,35.65
2023-02-09T06:34:46.439Z,35.50
2023-02-09T06:37:18.114Z,36.03
2023-02-09T06:39:49.800Z,33.42
2023-02-09T06:42:21.641Z,29.92
2023-02-09T06:44:53.405Z,31.48
2023-02-09T06:47:25.079Z,35.15
2023-02-09T06:49:56.749Z,34.08
2023-02-09T06:52:28.816Z,32.70
2023-02-09T06:55:00.566Z,33.65
2023-02-09T06:57:33.160Z,35.03
2023-02-09T07:00:07.821Z,34.67
2023-02-09T07:02:43.628Z,31.85
2023-02-09T07:05:16.671Z,44.25
2023-02-09T07:07:48.382Z,39.67
2023-02-09T07:10:20.183Z,38.70
2023-02-09T07:12:51.873Z,40.50
2023-02-09T07:15:23.573Z,38.17
2023-02-09T07:17:55.301Z,39.10
2023-02-09T07:20:26.961Z,37.42
2023-02-09T07:23:01.218Z,34.97
2023-02-09T07:25:34.225Z,35.83
2023-02-09T07:28:05.997Z,33.83
2023-02-09T07:30:41.081Z,34.42
2023-02-09T07:33:13.001Z,30.20
2023-02-09T07:35:45.304Z,27.45
2023-02-09T07:38:17.050Z,30.23
2023-02-09T07:40:48.991Z,27.25
2023-02-09T07:43:20.747Z,25.63
2023-02-09T07:45:52.513Z,25.65
2023-02-09T07:48:25.375Z,28.48
2023-02-09T07:50:57.375Z,26.50
2023-02-09T07:53:29.732Z,24.00
2023-02-09T07:56:01.702Z,23.92
2023-02-09T07:58:33.538Z,22.45
2023-02-09T08:01:08.274Z,25.00
2023-02-09T08:03:42.312Z,24.75
2023-02-09T08:06:30.319Z,27.25
2023-02-09T08:09:08.833Z,29.25
2023-02-09T08:11:46.029Z,26.60
2023-02-09T08:14:26.011Z,25.38
2023-02-09T08:17:21.595Z,28.50
2023-02-09T08:20:00.438Z,29.83
2023-02-09T08:22:35.086Z,28.50
2023-02-09T08:25:07.814Z,24.90
2023-02-09T08:27:40.812Z,25.38
2023-02-09T08:30:14.865Z,29.60
2023-02-09T08:32:46.672Z,28.75
2023-02-09T08:35:18.441Z,26.45
2023-02-09T08:37:50.240Z,26.45
2023-02-09T08:40:21.951Z,26.73
2023-02-09T08:42:53.991Z,23.48
2023-02-09T08:45:25.838Z,27.23
2023-02-09T08:47:59.603Z,25.95
2023-02-09T08:50:31.336Z,22.00
2023-02-09T08:53:06.731Z,23.20
2023-02-09T08:55:39.233Z,24.95
2023-02-09T08:58:11.838Z,28.13
2023-02-09T09:00:43.587Z,24.65
2023-02-09T09:03:15.452Z,24.75
2023-02-09T09:05:47.582Z,24.38
2023-02-09T09:08:19.563Z,22.83
2023-02-09T09:10:51.323Z,24.10
2023-02-09T09:13:24.436Z,24.48
2023-02-09T09:15:56.342Z,25.63
2023-02-09T09:18:28.059Z,23.33
2023-02-09T09:20:59.802Z,22.80
2023-02-09T09:23:31.568Z,22.00
2023-02-09T09:26:04.058Z,22.67
2023-02-09T09:28:36.361Z,23.88
2023-02-09T09:31:16.449Z,20.77
2023-02-09T09:33:48.269Z,21.67
2023-02-09T09:36:20.723Z,19.95
2023-02-09T09:38:52.420Z,23.88
2023-02-09T09:41:28.718Z,20.13
2023-02-09T09:44:04.781Z,19.65
2023-02-09T09:46:41.835Z,16.42
2023-02-09T09:49:23.937Z,16.33
2023-02-09T09:52:08.363Z,20.92
2023-02-09T09:54:41.117Z,18.90
2023-02-09T09:57:27.438Z,20.05
2023-02-09T10:00:02.054Z,22.92
2023-02-09T10:02:37.051Z,22.20
2023-02-09T10:05:17.852Z,20.45
2023-02-09T10:07:55.532Z,22.15
2023-02-09T10:10:38.881Z,21.88
2023-02-09T10:13:27.160Z,20.65
2023-02-09T10:15:59.187Z,22.73
2023-02-09T10:18:33.234Z,22.75
2023-02-09T10:21:11.997Z,22.83
2023-02-09T10:23:45.453Z,21.63
2023-02-09T10:26:25.699Z,23.75
2023-02-09T10:29:01.182Z,20.90
2023-02-09T10:31:42.634Z,22.52
2023-02-09T10:34:18.502Z,20.95
2023-02-09T10:36:54.766Z,22.65
2023-02-09T10:39:32.901Z,23.15
2023-02-09T10:42:27.122Z,23.73
2023-02-09T10:45:08.235Z,22.58
2023-02-09T10:47:40.024Z,20.25
2023-02-09T10:50:11.612Z,22.95
2023-02-09T10:52:59.820Z,22.42
2023-02-09T10:55:39.939Z,21.33
2023-02-09T10:58:11.648Z,24.20
2023-02-09T11:00:52.697Z,24.33
2023-02-09T11:03:27.815Z,22.58
2023-02-09T11:06:15.608Z,24.20
2023-02-09T11:08:55.383Z,22.83
2023-02-09T11:11:40.206Z,22.70
2023-02-09T11:14:15.726Z,20.77
2023-02-09T11:16:57.990Z,24.73
2023-02-09T11:19:57.711Z,21.60
2023-02-09T11:23:03.063Z,23.90
2023-02-09T11:26:12.071Z,26.88
2023-02-09T11:29:22.280Z,22.73
2023-02-09T11:31:56.929Z,20.85
2023-02-09T11:34:42.099Z,21.30
2023-02-09T11:37:32.090Z,20.08
2023-02-09T11:40:38.906Z,21.02
2023-02-09T11:43:18.986Z,19.00
2023-02-09T11:45:56.748Z,21.00
2023-02-09T11:48:36.377Z,20.50
2023-02-09T11:51:20.989Z,23.33
2023-02-09T11:54:22.208Z,23.25
2023-02-09T11:57:01.610Z,19.48
2023-02-09T11:59:39.580Z,19.35
2023-02-09T12:02:14.274Z,22.52
2023-02-09T12:04:58.573Z,26.05
2023-02-09T12:07:55.387Z,22.10
2023-02-09T12:10:45.257Z,15.52
2023-02-09T12:13:44.097Z,17.92
2023-02-09T12:16:20.765Z,17.63
2023-02-09T12:18:55.574Z,23.85
2023-02-09T12:21:34.476Z,17.13
2023-02-09T12:24:39.017Z,16.75
2023-02-09T12:27:26.432Z,14.63
2023-02-09T12:29:59.082Z,16.85
2023-02-09T12:32:44.795Z,16.52
2023-02-09T12:35:37.208Z,18.77
2023-02-09T12:38:15.818Z,16.13
2023-02-09T12:41:03.855Z,16.58
2023-02-09T12:43:37.656Z,14.77
2023-02-09T12:46:22.959Z,15.53
2023-02-09T12:49:07.595Z,14.10
2023-02-09T12:51:51.739Z,14.27
2023-02-09T12:54:26.112Z,16.98
2023-02-09T12:57:16.113Z,14.75
2023-02-09T12:59:51.167Z,17.13
2023-02-09T13:02:24.002Z,14.90
2023-02-09T13:05:07.916Z,18.75
2023-02-09T13:07:58.115Z,15.50
2023-02-09T13:10:41.690Z,14.50
2023-02-09T13:13:13.364Z,16.20
2023-02-09T13:15:50.769Z,14.73
2023-02-09T13:19:04.089Z,14.05
2023-02-09T13:21:47.872Z,15.32
2023-02-09T13:24:38.901Z,13.23
2023-02-09T13:27:19.520Z,11.77
2023-02-09T13:29:53.609Z,17.10
2023-02-09T13:32:30.953Z,12.18
2023-02-09T13:35:29.364Z,12.60
2023-02-09T13:38:17.653Z,17.02
2023-02-09T13:40:50.627Z,10.88
2023-02-09T13:43:33.597Z,12.48
2023-02-09T13:46:05.535Z,11.88
2023-02-09T13:48:38.691Z,13.65
2023-02-09T13:51:19.451Z,13.75
2023-02-09T13:53:59.236Z,12.75
2023-02-09T13:56:32.491Z,12.20
2023-02-09T13:59:04.551Z,11.23
2023-02-09T14:01:37.341Z,13.38
2023-02-09T14:04:17.577Z,13.15
2023-02-09T14:07:03.699Z,12.13
2023-02-09T14:09:49.396Z,16.02
2023-02-09T14:12:51.322Z,12.00
2023-02-09T14:15:48.555Z,12.75
2023-02-09T14:18:26.419Z,11.95
2023-02-09T14:21:19.341Z,12.65
2023-02-09T14:23:58.022Z,13.75
2023-02-09T14:26:43.156Z,13.45
2023-02-09T14:31:56.020Z,16.20
2023-02-09T14:34:39.266Z,18.20
2023-02-09T14:37:11.009Z,13.60
2023-02-09T14:39:56.612Z,15.05
2023-02-09T14:42:33.494Z,16.60
2023-02-09T14:45:14.206Z,16.83
2023-02-09T14:47:47.741Z,16.48
2023-02-09T14:50:23.445Z,14.90
2023-02-09T14:53:07.998Z,14.15
2023-02-09T14:55:44.425Z,13.35
2023-02-09T14:58:20.689Z,11.77
2023-02-09T15:00:54.564Z,12.07
2023-02-09T15:03:26.834Z,13.75
2023-02-09T15:06:02.385Z,13.25
2023-02-09T15:08:36.892Z,14.05
2023-02-09T15:11:34.265Z,14.65
2023-02-09T15:14:07.877Z,14.85
2023-02-09T15:16:39.539Z,12.32
2023-02-09T15:19:16.509Z,15.45
2023-02-09T15:22:05.219Z,14.18
2023-02-09T15:24:38.479Z,14.75
2023-02-09T15:27:24.233Z,14.00
2023-02-09T15:29:59.832Z,15.55
2023-02-09T15:32:35.425Z,16.38
2023-02-09T15:35:07.661Z,16.73
2023-02-09T15:37:40.333Z,15.52
2023-02-09T15:40:15.144Z,15.68
2023-02-09T15:43:06.509Z,14.35
2023-02-09T15:45:57.107Z,24.05
2023-02-09T15:48:28.748Z,11.98
2023-02-09T15:51:00.608Z,13.63
2023-02-09T15:53:32.343Z,15.68
2023-02-09T15:56:06.260Z,17.45
2023-02-09T15:58:47.107Z,17.85
2023-02-09T16:01:19.261Z,15.32
2023-02-09T16:03:52.419Z,23.15
2023-02-09T16:06:24.922Z,19.65
2023-02-09T16:08:59.815Z,14.98
2023-02-09T16:11:40.381Z,22.45
2023-02-09T16:14:23.444Z,23.60
2023-02-09T16:16:55.231Z,22.83
2023-02-09T16:19:27.041Z,17.92
2023-02-09T16:22:04.417Z,15.38
2023-02-09T16:24:47.173Z,21.30
2023-02-09T16:27:29.817Z,22.00
2023-02-09T16:30:01.658Z,20.38
2023-02-09T16:32:37.903Z,26.27
2023-02-09T16:35:17.083Z,31.95
2023-02-09T16:37:51.023Z,27.13
2023-02-09T16:40:31.079Z,31.00
2023-02-09T16:43:02.996Z,28.13
2023-02-09T16:45:36.521Z,30.73
2023-02-09T16:48:20.876Z,25.88
2023-02-09T16:50:53.970Z,23.83
2023-02-09T16:53:37.306Z,27.50
2023-02-09T16:56:12.947Z,28.30
2023-02-09T16:58:45.838Z,35.83
2023-02-09T17:01:22.726Z,34.88
2023-02-09T17:03:56.617Z,26.95
2023-02-09T17:06:30.097Z,24.85
2023-02-09T17:09:01.782Z,24.33
2023-02-09T17:11:36.250Z,25.35
2023-02-09T17:14:08.102Z,20.70
2023-02-09T17:16:43.409Z,19.33
2023-02-09T17:19:20.891Z,20.02
2023-02-09T17:21:52.613Z,21.75
2023-02-09T17:24:24.551Z,25.95
2023-02-09T17:26:56.232Z,26.10
2023-02-09T17:29:33.319Z,30.92
2023-02-09T17:32:13.467Z,35.10
2023-02-09T17:34:45.272Z,27.35
2023-02-09T17:37:17.002Z,34.17
2023-02-09T17:39:48.655Z,31.58
2023-02-09T17:42:22.804Z,35.25
2023-02-09T17:44:55.907Z,35.33
2023-02-09T17:47:29.251Z,32.15
2023-02-09T17:50:01.271Z,34.75
2023-02-09T17:52:33.062Z,37.63
2023-02-09T17:55:05.047Z,41.10
2023-02-09T17:57:36.775Z,27.52
2023-02-09T18:00:09.056Z,36.17
2023-02-09T18:02:41.178Z,32.20
2023-02-09T18:05:18.910Z,33.30
2023-02-09T18:07:51.513Z,37.10
2023-02-09T18:10:23.315Z,37.88
2023-02-09T18:12:57.219Z,32.42
2023-02-09T18:15:33.339Z,40.15
2023-02-09T18:18:05.109Z,33.95
2023-02-09T18:20:37.118Z,35.75
2023-02-09T18:23:14.875Z,32.55
2023-02-09T18:25:47.867Z,28.23
2023-02-09T18:28:19.907Z,37.78
2023-02-09T18:30:51.655Z,37.03
2023-02-09T18:33:23.353Z,38.30
2023-02-09T18:35:55.180Z,42.83
2023-02-09T18:38:26.914Z,36.20
2023-02-09T18:40:58.608Z,36.90
2023-02-09T18:43:30.330Z,39.75
2023-02-09T18:46:03.489Z,33.08
2023-02-09T18:48:35.343Z,39.63
2023-02-09T18:51:10.301Z,40.58
2023-02-09T18:53:42.805Z,43.80
2023-02-09T18:56:19.732Z,42.63
2023-02-09T18:58:52.067Z,41.72
2023-02-09T19:01:24.371Z,40.00
2023-02-09T19:03:56.081Z,44.78
2023-02-09T19:06:27.971Z,36.92
2023-02-09T19:08:59.661Z,42.58
2023-02-09T19:11:31.459Z,39.33
2023-02-09T19:14:22.100Z,39.67
2023-02-09T19:16:53.806Z,43.78
2023-02-09T19:19:26.159Z,37.70
2023-02-09T19:22:00.163Z,42.78
2023-02-09T19:24:31.931Z,38.60
2023-02-09T19:27:06.660Z,32.72
2023-02-09T19:29:41.277Z,36.60
2023-02-09T19:32:14.615Z,37.55
2023-02-09T19:34:47.265Z,37.72
2023-02-09T19:37:21.027Z,36.97
2023-02-09T19:39:53.270Z,42.55
2023-02-09T19:42:24.960Z,32.65
2023-02-09T19:44:56.961Z,39.65
2023-02-09T19:47:28.694Z,40.63
2023-02-09T19:50:00.521Z,39.30
2023-02-09T19:52:34.870Z,38.67
2023-02-09T19:55:06.962Z,34.08
2023-02-09T19:57:38.644Z,41.00
2023-02-09T20:00:15.760Z,35.58
2023-02-09T20:02:48.347Z,38.90
2023-02-09T20:05:20.117Z,36.30
2023-02-09T20:07:53.698Z,40.85
2023-02-09T20:10:25.543Z,43.72
2023-02-09T20:12:57.204Z,56.13
2023-02-09T20:15:28.893Z,45.22
2023-02-09T20:18:01.080Z,41.72
2023-02-09T20:20:32.903Z,37.85
2023-02-09T20:23:04.624Z,37.40
2023-02-09T20:25:36.406Z,43.15
2023-02-09T20:28:08.405Z,38.35
2023-02-09T20:30:42.415Z,41.83
2023-02-09T20:33:17.391Z,36.45
2023-02-09T20:35:49.039Z,37.38
2023-02-09T20:38:20.772Z,43.47
2023-02-09T20:40:52.520Z,42.35
2023-02-09T20:43:42.970Z,38.42
2023-02-09T20:46:39.488Z,39.15
2023-02-09T20:49:13.464Z,45.00
2023-02-09T20:51:46.043Z,46.53
2023-02-09T20:54:17.713Z,42.83
2023-02-09T20:56:49.619Z,41.30
2023-02-09T20:59:21.400Z,40.33
2023-02-09T21:01:53.146Z,41.92
2023-02-09T21:04:30.224Z,37.60
2023-02-09T21:07:04.140Z,43.17
2023-02-09T21:09:35.846Z,43.10
2023-02-09T21:12:10.705Z,42.00
2023-02-09T21:14:45.180Z,39.60
2023-02-09T21:17:19.161Z,42.45
2023-02-09T21:19:50.897Z,41.45
2023-02-09T21:22:22.603Z,42.85
2023-02-09T21:24:54.313Z,42.42
2023-02-09T21:27:28.807Z,40.70
2023-02-09T21:30:00.547Z,45.25
2023-02-09T21:32:34.935Z,41.90
2023-02-09T21:35:10.241Z,41.60
2023-02-09T21:37:42.950Z,41.72
2023-02-09T21:40:16.198Z,48.60
2023-02-09T21:42:48.855Z,41.83
2023-02-09T21:45:20.557Z,42.50
2023-02-09T21:47:52.371Z,43.63
2023-02-09T21:50:24.147Z,39.85
2023-02-09T21:52:55.796Z,38.60
2023-02-09T21:55:30.759Z,39.58
2023-02-09T21:58:02.419Z,43.95
2023-02-09T22:00:34.323Z,41.90
2023-02-09T22:03:05.978Z,40.65
2023-02-09T22:05:37.643Z,42.67
2023-02-09T22:08:09.259Z,50.00
2023-02-09T22:10:40.944Z,39.45
2023-02-09T22:13:12.630Z,45.22
2023-02-09T22:15:44.739Z,49.42
2023-02-09T22:18:16.416Z,40.65
2023-02-09T22:20:48.720Z,41.53
2023-02-09T22:23:20.597Z,46.50
2023-02-09T22:25:58.464Z,44.72
2023-02-09T22:28:30.391Z,48.55
2023-02-09T22:31:14.316Z,52.33
2023-02-09T22:33:46.359Z,44.28
2023-02-09T22:36:18.896Z,44.58
2023-02-09T22:38:51.332Z,48.80
2023-02-09T22:41:24.064Z,48.50
2023-02-09T22:44:07.839Z,48.47
2023-02-09T22:46:41.580Z,47.85
2023-02-09T22:49:18.573Z,51.15
2023-02-09T22:51:50.867Z,47.08
2023-02-09T22:54:22.546Z,44.63
2023-02-09T22:56:54.376Z,44.47
2023-02-09T22:59:26.019Z,49.70
2023-02-09T23:01:57.777Z,55.78
2023-02-09T23:04:31.924Z,45.47
2023-02-09T23:07:04.981Z,48.67
2023-02-09T23:09:36.703Z,47.53
2023-02-09T23:12:08.430Z,46.33
2023-02-09T23:14:40.549Z,49.38
2023-02-09T23:17:12.614Z,47.67
2023-02-09T23:19:44.911Z,48.45
2023-02-09T23:22:16.570Z,51.13
2023-02-09T23:24:48.279Z,47.05
2023-02-09T23:27:19.919Z,45.22
2023-02-09T23:29:51.612Z,42.90
2023-02-09T23:32:23.381Z,40.67
2023-02-09T23:34:55.121Z,46.33
2023-02-09T23:37:37.517Z,53.22
2023-02-09T23:40:10.418Z,48.53
2023-02-09T23:42:42.126Z,44.85
2023-02-09T23:45:13.836Z,43.30
2023-02-09T23:47:45.549Z,47.33
2023-02-09T23:50:17.696Z,51.85
2023-02-09T23:52:49.406Z,47.28
2023-02-09T23:55:21.169Z,46.10
2023-02-09T23:57:52.929Z,47.03
